Welcome to Northern Hawkes Bay. New Zealand.
PWS Header
      nz Flag



Hit Counter


W3C Valid W3C Valid logo


    Wairoa

Select any of the Stations below to visit their websites.










Historic Data from Weather Underground
Select the location of interest below. Wairoa is the default. Please have patience, this Data is slow to load in.
Northern Hawkes Bay Historical Data
Daily Summary for February 27, 2017 Units:  Metric    English   Both
« Previous Day
Next Day »
Daily Weekly Monthly Yearly Custom
  High: Low: Average:
Temperature: 23.0 °C 16.3 °C 19 °C
Dew Point: 18.1 °C 15.9 °C 16.7 °C
Humidity: 98% 72% 87%
Wind Speed: 15.8km/h 0.0km/h 5.7km/h
Wind Gust: 24.5km/h - -
Wind- - SW
Pressure: 1032.7 hPa 1026.0 hPa -
Precipitation: 2.3 mm    
Historical Graphs
 
 
Tabular Data for February 27, 2017
Time Temperature Dew Point Pressure Wind Wind Speed Wind Gust Humidity Rainfall Rate (Hourly) solar
00:03 18.6 °C 16.9 °C 1026.3 hPa SSW 9.7 km/h 17.2 km/h 90% 0.0 mm 0 W/m2
00:08 18.5 °C 16.8 °C 1026.0 hPa SSW 9.7 km/h 15.8 km/h 90% 0.0 mm 0 W/m2
00:13 18.6 °C 16.9 °C 1026.3 hPa SW 11.1 km/h 15.8 km/h 90% 0.0 mm 0 W/m2
00:18 18.6 °C 16.9 °C 1026.3 hPa SW 11.1 km/h 15.8 km/h 90% 0.0 mm 0 W/m2
00:23 18.6 °C 16.9 °C 1026.3 hPa SSW 9.7 km/h 17.2 km/h 90% 0.0 mm 0 W/m2
00:28 18.6 °C 16.9 °C 1026.3 hPa SW 8.7 km/h 19.5 km/h 90% 0.0 mm 0 W/m2
00:33 18.5 °C 17.0 °C 1026.3 hPa SW 11.1 km/h 19.5 km/h 91% 0.0 mm 0 W/m2
00:43 18.5 °C 17.0 °C 1026.3 hPa SW 9.7 km/h 17.2 km/h 91% 0.0 mm 0 W/m2
00:48 18.4 °C 17.1 °C 1026.3 hPa SW 11.1 km/h 17.2 km/h 92% 0.0 mm 0 W/m2
00:53 18.4 °C 17.1 °C 1026.3 hPa SW 5.0 km/h 17.2 km/h 92% 0.0 mm 0 W/m2
01:11 18.1 °C 16.8 °C 1026.6 hPa SW 7.2 km/h 15.8 km/h 92% 0.0 mm 0 W/m2
01:16 18.1 °C 16.8 °C 1026.6 hPa SW 14.8 km/h 20.9 km/h 92% 0.0 mm 0 W/m2
01:21 18.2 °C 16.9 °C 1026.6 hPa West 11.1 km/h 21.9 km/h 92% 0.0 mm 0 W/m2
01:26 18.1 °C 16.8 °C 1026.6 hPa West 13.4 km/h 21.9 km/h 92% 0.0 mm 0 W/m2
01:31 17.9 °C 16.6 °C 1026.6 hPa SW 11.1 km/h 21.9 km/h 92% 0.0 mm 0 W/m2
01:36 17.7 °C 16.6 °C 1026.6 hPa SW 7.2 km/h 21.9 km/h 93% 0.0 mm 0 W/m2
01:41 17.6 °C 16.4 °C 1027.0 hPa WSW 13.4 km/h 19.5 km/h 93% 0.0 mm 0 W/m2
01:46 17.5 °C 16.4 °C 1027.0 hPa WSW 8.7 km/h 19.5 km/h 93% 0.0 mm 0 W/m2
01:51 17.4 °C 16.4 °C 1027.0 hPa SW 6.1 km/h 18.3 km/h 94% 0.0 mm 0 W/m2
01:56 17.2 °C 16.4 °C 1026.6 hPa WSW 3.5 km/h 14.8 km/h 95% 0.0 mm 0 W/m2
02:01 17.1 °C 16.3 °C 1027.0 hPa Calm   14.8 km/h 95% 0.3 mm 0 W/m2
02:06 17.1 °C 16.4 °C 1027.0 hPa SW 6.1 km/h 9.7 km/h 96% 0.3 mm 0 W/m2
02:11 17.0 °C 16.4 °C 1026.6 hPa SW 5.0 km/h 9.7 km/h 96% 1.0 mm 0 W/m2
02:16 16.9 °C 16.4 °C 1027.0 hPa Calm   8.7 km/h 97% 1.0 mm 0 W/m2
02:21 16.8 °C 16.5 °C 1027.0 hPa Calm   5.0 km/h 98% 1.0 mm 0 W/m2
02:26 16.8 °C 16.5 °C 1026.6 hPa Calm   6.1 km/h 98% 1.0 mm 0 W/m2
02:31 16.8 °C 16.5 °C 1027.0 hPa Calm   6.1 km/h 98% 1.0 mm 0 W/m2
02:36 16.7 °C 16.4 °C 1027.0 hPa WSW 5.0 km/h 7.2 km/h 98% 1.3 mm 0 W/m2
02:41 16.7 °C 16.4 °C 1027.0 hPa WSW 1.1 km/h 7.2 km/h 98% 1.3 mm 0 W/m2
02:46 16.6 °C 16.3 °C 1026.6 hPa West 1.1 km/h 8.7 km/h 98% 1.3 mm 0 W/m2
02:51 16.6 °C 16.3 °C 1027.0 hPa WSW 9.7 km/h 12.2 km/h 98% 1.3 mm 0 W/m2
02:56 16.7 °C 16.4 °C 1027.0 hPa WSW 3.5 km/h 12.2 km/h 98% 1.3 mm 0 W/m2
03:01 16.8 °C 16.5 °C 1027.0 hPa West 5.0 km/h 12.2 km/h 98% 1.0 mm 0 W/m2
03:06 16.8 °C 16.5 °C 1027.0 hPa WSW 5.0 km/h 12.2 km/h 98% 0.5 mm 0 W/m2
03:11 16.8 °C 16.5 °C 1027.0 hPa WSW 3.5 km/h 13.4 km/h 98% 0.3 mm 0 W/m2
03:16 16.8 °C 16.5 °C 1027.0 hPa WSW 3.5 km/h 13.4 km/h 98% 0.3 mm 0 W/m2
03:21 16.7 °C 16.4 °C 1027.0 hPa WSW 3.5 km/h 8.7 km/h 98% 0.3 mm 0 W/m2
03:26 16.7 °C 16.4 °C 1027.0 hPa WSW 5.0 km/h 9.7 km/h 98% 0.3 mm 0 W/m2
03:31 16.7 °C 16.4 °C 1027.3 hPa WSW 3.5 km/h 9.7 km/h 98% 0.3 mm 0 W/m2
03:36 16.7 °C 16.4 °C 1027.0 hPa WSW 5.0 km/h 8.7 km/h 98% 0.0 mm 0 W/m2
03:41 16.6 °C 16.3 °C 1027.0 hPa West 1.1 km/h 7.2 km/h 98% 0.0 mm 0 W/m2
03:46 16.6 °C 16.3 °C 1027.0 hPa Calm   6.1 km/h 98% 0.0 mm 0 W/m2
03:51 16.5 °C 16.2 °C 1027.0 hPa Calm   5.0 km/h 98% 0.0 mm 0 W/m2
03:56 16.5 °C 16.2 °C 1027.0 hPa Calm   5.0 km/h 98% 0.0 mm 0 W/m2
04:01 16.5 °C 16.2 °C 1027.0 hPa WNW 1.1 km/h 7.2 km/h 98% 0.0 mm 0 W/m2
04:06 16.5 °C 16.2 °C 1027.0 hPa WNW 1.1 km/h 7.2 km/h 98% 0.0 mm 0 W/m2
04:11 16.5 °C 16.2 °C 1027.0 hPa Calm   3.5 km/h 98% 0.0 mm 0 W/m2
04:16 16.4 °C 16.1 °C 1027.3 hPa NW 2.6 km/h 5.0 km/h 98% 0.0 mm 0 W/m2
04:18 16.4 °C 16.1 °C 1027.0 hPa WNW 3.5 km/h 5.0 km/h 98% 0.0 mm 0 W/m2
04:23 16.4 °C 16.1 °C 1027.3 hPa Calm   5.0 km/h 98% 0.0 mm 0 W/m2
04:28 16.4 °C 16.1 °C 1027.3 hPa West 2.6 km/h 5.0 km/h 98% 0.3 mm 0 W/m2
04:33 16.4 °C 16.1 °C 1027.3 hPa Calm   6.1 km/h 98% 0.3 mm 0 W/m2
04:38 16.4 °C 16.1 °C 1027.3 hPa West 1.1 km/h 6.1 km/h 98% 0.3 mm 0 W/m2
04:43 16.4 °C 16.1 °C 1027.3 hPa Calm   5.0 km/h 98% 0.3 mm 0 W/m2
04:48 16.4 °C 16.1 °C 1027.3 hPa Calm   5.0 km/h 98% 0.3 mm 0 W/m2
04:53 16.4 °C 16.1 °C 1027.3 hPa Calm   2.6 km/h 98% 0.3 mm 0 W/m2
04:58 16.4 °C 16.1 °C 1027.3 hPa Calm   3.5 km/h 98% 0.3 mm 0 W/m2
05:03 16.4 °C 16.1 °C 1027.7 hPa NNW 1.1 km/h 5.0 km/h 98% 0.3 mm 0 W/m2
05:08 16.4 °C 16.1 °C 1027.7 hPa Calm   5.0 km/h 98% 0.3 mm 0 W/m2
05:13 16.3 °C 16.0 °C 1027.7 hPa Calm   3.5 km/h 98% 0.5 mm 0 W/m2
05:18 16.3 °C 16.0 °C 1027.3 hPa Calm     98% 0.5 mm 0 W/m2
05:23 16.3 °C 16.0 °C 1027.7 hPa NNW 2.6 km/h 3.5 km/h 98% 0.5 mm 0 W/m2
05:27 16.3 °C 16.0 °C 1027.3 hPa Calm   3.5 km/h 98% 0.5 mm 0 W/m2
05:33 16.4 °C 16.1 °C 1027.7 hPa NW 1.1 km/h 6.1 km/h 98% 0.5 mm 0 W/m2
05:38 16.3 °C 16.0 °C 1027.7 hPa Calm   6.1 km/h 98% 0.5 mm 0 W/m2
05:43 16.3 °C 16.0 °C 1027.7 hPa Calm   6.1 km/h 98% 0.5 mm 0 W/m2
05:48 16.3 °C 16.0 °C 1027.7 hPa NW 2.6 km/h 6.1 km/h 98% 0.5 mm 0 W/m2
05:53 16.3 °C 16.0 °C 1027.7 hPa NW 2.6 km/h 6.1 km/h 98% 0.5 mm 0 W/m2
05:58 16.3 °C 16.0 °C 1027.7 hPa NW 2.6 km/h 6.1 km/h 98% 0.5 mm 0 W/m2
06:03 16.3 °C 16.0 °C 1027.7 hPa NW 5.0 km/h 7.2 km/h 98% 0.5 mm 0 W/m2
06:08 16.3 °C 16.0 °C 1028.0 hPa Calm   7.2 km/h 98% 0.5 mm 0 W/m2
06:13 16.3 °C 16.0 °C 1028.0 hPa WNW 1.1 km/h 7.2 km/h 98% 0.3 mm 0 W/m2
06:18 16.3 °C 16.0 °C 1027.7 hPa NNW 2.6 km/h 5.0 km/h 98% 0.5 mm 0 W/m2
06:23 16.3 °C 16.0 °C 1028.0 hPa NNW 1.1 km/h 5.0 km/h 98% 0.5 mm 0 W/m2
06:27 16.3 °C 16.0 °C 1028.0 hPa Calm   6.1 km/h 98% 0.3 mm 0 W/m2
06:33 16.3 °C 16.0 °C 1028.0 hPa NNW 3.5 km/h 6.1 km/h 98% 0.3 mm 0 W/m2
06:38 16.3 °C 16.0 °C 1028.0 hPa Calm   5.0 km/h 98% 0.3 mm 0 W/m2
06:43 16.3 °C 16.0 °C 1028.0 hPa Calm   5.0 km/h 98% 0.3 mm 0 W/m2
06:47 16.3 °C 16.0 °C 1028.0 hPa Calm   3.5 km/h 98% 0.3 mm 0 W/m2
06:53 16.3 °C 16.0 °C 1028.3 hPa NNW 1.1 km/h 3.5 km/h 98% 0.3 mm 0 W/m2
06:58 16.3 °C 16.0 °C 1028.3 hPa Calm   3.5 km/h 98% 0.3 mm 0 W/m2
07:03 16.3 °C 16.0 °C 1028.3 hPa Calm   3.5 km/h 98% 0.3 mm 0 W/m2
07:07 16.4 °C 16.1 °C 1028.3 hPa Calm     98% 0.3 mm 4 W/m2
07:12 16.4 °C 16.1 °C 1028.3 hPa Calm   2.6 km/h 98% 0.3 mm 7 W/m2
07:18 16.4 °C 16.1 °C 1028.3 hPa Calm   2.6 km/h 98% 0.0 mm 10 W/m2
07:23 16.5 °C 16.2 °C 1028.7 hPa West 5.0 km/h 9.7 km/h 98% 0.0 mm 14 W/m2
07:27 16.5 °C 16.2 °C 1028.3 hPa West 7.2 km/h 14.8 km/h 98% 0.0 mm 21 W/m2
07:32 16.7 °C 16.4 °C 1028.3 hPa WSW 9.7 km/h 14.8 km/h 98% 0.0 mm 22 W/m2
07:38 16.8 °C 16.5 °C 1028.7 hPa WSW 8.7 km/h 14.8 km/h 98% 0.0 mm 21 W/m2
07:43 17.0 °C 16.6 °C 1028.7 hPa SW 5.0 km/h 18.3 km/h 97% 0.0 mm 27 W/m2
07:48 17.1 °C 16.6 °C 1028.7 hPa SW 8.7 km/h 18.3 km/h 97% 0.0 mm 42 W/m2
07:53 17.2 °C 16.7 °C 1028.7 hPa SW 9.7 km/h 17.2 km/h 97% 0.0 mm 56 W/m2
07:57 17.2 °C 16.4 °C 1028.7 hPa WSW 6.1 km/h 18.3 km/h 95% 0.0 mm 65 W/m2
08:03 17.3 °C 16.3 °C 1028.7 hPa WSW 13.4 km/h 20.9 km/h 94% 0.0 mm 63 W/m2
08:08 17.3 °C 16.3 °C 1028.7 hPa WSW 9.7 km/h 20.9 km/h 94% 0.0 mm 68 W/m2
08:13 17.3 °C 16.2 °C 1028.7 hPa WSW 8.7 km/h 18.3 km/h 93% 0.0 mm 72 W/m2
08:17 17.3 °C 16.2 °C 1028.7 hPa WSW 6.1 km/h 15.8 km/h 93% 0.0 mm 89 W/m2
08:22 17.6 °C 16.4 °C 1029.0 hPa WSW 9.7 km/h 15.8 km/h 93% 0.0 mm 137 W/m2
08:28 18.0 °C 17.1 °C 1029.0 hPa SW 11.1 km/h 17.2 km/h 94% 0.0 mm 145 W/m2
08:33 18.0 °C 16.7 °C 1029.0 hPa SW 11.1 km/h 21.9 km/h 92% 0.0 mm 124 W/m2
08:37 18.0 °C 16.5 °C 1029.0 hPa WSW 8.7 km/h 21.9 km/h 91% 0.0 mm 133 W/m2
08:42 18.0 °C 16.5 °C 1029.0 hPa WSW 13.4 km/h 19.5 km/h 91% 0.0 mm 137 W/m2
08:48 18.0 °C 16.3 °C 1029.0 hPa WSW 8.7 km/h 19.5 km/h 90% 0.0 mm 119 W/m2
08:52 17.9 °C 16.2 °C 1029.3 hPa WSW 8.7 km/h 18.3 km/h 90% 0.0 mm 117 W/m2
08:58 17.8 °C 16.3 °C 1029.3 hPa West 6.1 km/h 18.3 km/h 91% 0.0 mm 118 W/m2
09:03 17.9 °C 16.4 °C 1029.3 hPa WSW 6.1 km/h 17.2 km/h 91% 0.0 mm 130 W/m2
09:09 18.0 °C 16.5 °C 1029.3 hPa WSW 2.6 km/h 13.4 km/h 91% 0.0 mm 147 W/m2
09:14 18.2 °C 16.7 °C 1029.3 hPa Calm   13.4 km/h 91% 0.0 mm 172 W/m2
09:18 18.5 °C 16.8 °C 1029.7 hPa West 3.5 km/h 9.7 km/h 90% 0.0 mm 203 W/m2
09:23 18.8 °C 17.1 °C 1029.3 hPa West 3.5 km/h 9.7 km/h 90% 0.0 mm 217 W/m2
09:29 19.1 °C 17.1 °C 1029.7 hPa Calm   8.7 km/h 88% 0.0 mm 273 W/m2
09:34 19.6 °C 17.4 °C 1029.7 hPa WSW 3.5 km/h 8.7 km/h 87% 0.0 mm 218 W/m2
09:38 19.8 °C 17.4 °C 1029.7 hPa West 6.1 km/h 8.7 km/h 86% 0.0 mm 151 W/m2
09:43 19.4 °C 16.7 °C 1029.7 hPa West 3.5 km/h 12.2 km/h 84% 0.0 mm 150 W/m2
09:48 19.2 °C 16.4 °C 1029.7 hPa West 5.0 km/h 12.2 km/h 84% 0.0 mm 166 W/m2
09:53 19.2 °C 16.6 °C 1029.7 hPa West 1.1 km/h 7.2 km/h 85% 0.0 mm 150 W/m2
09:58 19.4 °C 16.8 °C 1029.7 hPa WSW 6.1 km/h 9.7 km/h 85% 0.0 mm 188 W/m2
10:03 19.3 °C 16.6 °C 1029.7 hPa WSW 9.7 km/h 14.8 km/h 84% 0.0 mm 229 W/m2
10:08 19.2 °C 16.4 °C 1030.0 hPa WSW 9.7 km/h 14.8 km/h 84% 0.0 mm 269 W/m2
10:13 19.6 °C 16.8 °C 1030.0 hPa SW 5.0 km/h 14.8 km/h 84% 0.0 mm 316 W/m2
10:19 19.8 °C 16.8 °C 1030.0 hPa SW 5.0 km/h 14.8 km/h 83% 0.0 mm 250 W/m2
10:24 19.9 °C 16.6 °C 1030.0 hPa SW 7.2 km/h 14.8 km/h 81% 0.0 mm 225 W/m2
10:28 19.8 °C 16.4 °C 1030.0 hPa SW 8.7 km/h 13.4 km/h 81% 0.0 mm 236 W/m2
10:33 19.8 °C 16.7 °C 1030.0 hPa WSW 13.4 km/h 14.8 km/h 82% 0.0 mm 279 W/m2
10:38 19.7 °C 16.4 °C 1030.0 hPa WSW 5.0 km/h 15.8 km/h 81% 0.0 mm 306 W/m2
10:43 20.0 °C 16.4 °C 1030.0 hPa SW 8.7 km/h 15.8 km/h 80% 0.0 mm 384 W/m2
10:48 20.2 °C 16.4 °C 1030.0 hPa SW 7.2 km/h 15.8 km/h 79% 0.0 mm 451 W/m2
10:53 20.3 °C 16.2 °C 1030.0 hPa SW 8.7 km/h 18.3 km/h 77% 0.0 mm 490 W/m2
10:58 20.5 °C 16.3 °C 1030.0 hPa SW 14.8 km/h 18.3 km/h 77% 0.0 mm 567 W/m2
11:03 20.9 °C 16.7 °C 1030.0 hPa SW 9.7 km/h 17.2 km/h 77% 0.0 mm 459 W/m2
11:08 21.1 °C 16.5 °C 1030.0 hPa SW 8.7 km/h 15.8 km/h 75% 0.0 mm 605 W/m2
11:13 21.1 °C 16.5 °C 1030.0 hPa SW 8.7 km/h 15.8 km/h 75% 0.0 mm 523 W/m2
11:18 21.0 °C 16.2 °C 1030.0 hPa WSW 9.7 km/h 14.8 km/h 74% 0.0 mm 346 W/m2
11:23 21.0 °C 16.4 °C 1030.0 hPa SW 9.7 km/h 14.8 km/h 75% 0.0 mm 471 W/m2
11:28 20.9 °C 16.3 °C 1030.0 hPa SW 11.1 km/h 17.2 km/h 75% 0.0 mm 545 W/m2
11:34 20.9 °C 16.7 °C 1030.4 hPa SW 8.7 km/h 17.2 km/h 77% 0.0 mm 655 W/m2
11:38 21.3 °C 16.9 °C 1030.4 hPa SSW 6.1 km/h 17.2 km/h 76% 0.0 mm 616 W/m2
11:43 21.5 °C 16.4 °C 1030.0 hPa SSW 12.2 km/h 17.2 km/h 73% 0.0 mm 790 W/m2
11:48 21.4 °C 16.6 °C 1030.4 hPa SW 9.7 km/h 17.2 km/h 74% 0.0 mm 790 W/m2
11:53 21.4 °C 16.4 °C 1030.0 hPa SW 13.4 km/h 20.9 km/h 73% 0.0 mm 750 W/m2
11:58 21.0 °C 16.2 °C 1030.4 hPa SSW 15.8 km/h 23.3 km/h 74% 0.0 mm 772 W/m2
12:03 21.1 °C 16.3 °C 1030.4 hPa SSW 11.1 km/h 24.5 km/h 74% 0.0 mm 823 W/m2
12:08 21.0 °C 16.2 °C 1030.4 hPa SSW 14.8 km/h 24.5 km/h 74% 0.0 mm 834 W/m2
12:13 21.0 °C 16.2 °C 1030.0 hPa SSW 13.4 km/h 23.3 km/h 74% 0.0 mm 792 W/m2
12:18 21.0 °C 16.2 °C 1030.4 hPa SSW 12.2 km/h 20.9 km/h 74% 0.0 mm 797 W/m2
12:23 21.1 °C 16.5 °C 1030.4 hPa SSW 9.7 km/h 23.3 km/h 75% 0.0 mm 786 W/m2
12:28 21.4 °C 16.4 °C 1030.4 hPa SW 14.8 km/h 23.3 km/h 73% 0.0 mm 783 W/m2
12:33 21.1 °C 16.3 °C 1030.4 hPa SW 11.1 km/h 21.9 km/h 74% 0.0 mm 856 W/m2
12:38 21.1 °C 16.3 °C 1030.4 hPa SSW 12.2 km/h 21.9 km/h 74% 0.0 mm 800 W/m2
12:43 21.3 °C 16.5 °C 1030.4 hPa SSW 13.4 km/h 21.9 km/h 74% 0.0 mm 875 W/m2
12:48 21.3 °C 16.7 °C 1030.4 hPa SW 14.8 km/h 19.5 km/h 75% 0.0 mm 832 W/m2
12:53 21.2 °C 16.4 °C 1030.4 hPa SSW 14.8 km/h 24.5 km/h 74% 0.0 mm 865 W/m2
12:58 21.2 °C 16.6 °C 1030.4 hPa SSW 13.4 km/h 24.5 km/h 75% 0.0 mm 618 W/m2
13:03 21.2 °C 16.8 °C 1030.4 hPa SW 13.4 km/h 21.9 km/h 76% 0.0 mm 792 W/m2
13:08 21.2 °C 16.6 °C 1030.4 hPa SW 13.4 km/h 21.9 km/h 75% 0.0 mm 757 W/m2
13:13 21.2 °C 16.4 °C 1030.4 hPa SW 14.8 km/h 19.5 km/h 74% 0.0 mm 556 W/m2
13:18 21.0 °C 16.4 °C 1030.4 hPa SSW 11.1 km/h 19.5 km/h 75% 0.0 mm 446 W/m2
13:23 20.8 °C 16.8 °C 1030.4 hPa SSW 11.1 km/h 19.5 km/h 78% 0.0 mm 588 W/m2
13:28 20.9 °C 16.9 °C 1030.7 hPa SW 11.1 km/h 19.5 km/h 78% 0.0 mm 629 W/m2
13:33 21.0 °C 16.8 °C 1030.7 hPa SW 12.2 km/h 18.3 km/h 77% 0.0 mm 765 W/m2
13:38 21.1 °C 16.9 °C 1030.7 hPa SW 13.4 km/h 19.5 km/h 77% 0.0 mm 467 W/m2
13:43 20.8 °C 16.8 °C 1030.7 hPa SSW 14.8 km/h 19.5 km/h 78% 0.0 mm 520 W/m2
13:48 21.0 °C 17.1 °C 1030.7 hPa SSW 11.1 km/h 21.9 km/h 78% 0.0 mm 674 W/m2
13:53 21.0 °C 17.1 °C 1030.7 hPa SSW 9.7 km/h 23.3 km/h 78% 0.0 mm 642 W/m2
13:58 21.2 °C 16.8 °C 1030.7 hPa SSW 12.2 km/h 23.3 km/h 76% 0.0 mm 730 W/m2
14:03 21.2 °C 16.8 °C 1030.7 hPa SSW 11.1 km/h 19.5 km/h 76% 0.0 mm 763 W/m2
14:08 21.5 °C 17.1 °C 1030.7 hPa SSW 7.2 km/h 21.9 km/h 76% 0.0 mm 692 W/m2
14:13 21.4 °C 17.0 °C 1030.4 hPa SSW 9.7 km/h 21.9 km/h 76% 0.0 mm 414 W/m2
14:18 21.3 °C 16.7 °C 1030.7 hPa SSW 11.1 km/h 18.3 km/h 75% 0.0 mm 449 W/m2
14:23 21.3 °C 17.1 °C 1030.7 hPa SSW 13.4 km/h 17.2 km/h 77% 0.0 mm 600 W/m2
14:28 21.3 °C 16.9 °C 1030.7 hPa SSW 11.1 km/h 18.3 km/h 76% 0.0 mm 402 W/m2
14:33 21.0 °C 16.4 °C 1030.7 hPa SSW 14.8 km/h 19.5 km/h 75% 0.0 mm 496 W/m2
14:38 21.0 °C 16.6 °C 1030.7 hPa South 8.7 km/h 19.5 km/h 76% 0.0 mm 445 W/m2
14:43 21.3 °C 16.5 °C 1030.4 hPa SSW 12.2 km/h 18.3 km/h 74% 0.0 mm 454 W/m2
14:48 21.5 °C 16.7 °C 1030.4 hPa SSW 9.7 km/h 18.3 km/h 74% 0.0 mm 548 W/m2
14:53 21.6 °C 16.6 °C 1030.4 hPa South 7.2 km/h 15.8 km/h 73% 0.0 mm 600 W/m2
14:58 22.1 °C 17.1 °C 1030.7 hPa South 7.2 km/h 15.8 km/h 73% 0.0 mm 508 W/m2
15:03 21.9 °C 16.8 °C 1030.7 hPa South 8.7 km/h 15.8 km/h 73% 0.0 mm 677 W/m2
15:08 22.0 °C 16.7 °C 1030.7 hPa South 9.7 km/h 15.8 km/h 72% 0.0 mm 458 W/m2
15:13 22.1 °C 17.3 °C 1030.4 hPa South 6.1 km/h 14.8 km/h 74% 0.0 mm 657 W/m2
15:18 22.3 °C 17.4 °C 1030.4 hPa SSW 11.1 km/h 15.8 km/h 74% 0.0 mm 572 W/m2
15:23 22.4 °C 17.6 °C 1030.4 hPa SSW 3.5 km/h 15.8 km/h 74% 0.0 mm 608 W/m2
15:28 22.3 °C 17.2 °C 1030.4 hPa SSW 11.1 km/h 14.8 km/h 73% 0.0 mm 543 W/m2
15:33 22.4 °C 17.8 °C 1030.4 hPa SSW 8.7 km/h 14.8 km/h 75% 0.0 mm 505 W/m2
15:38 22.3 °C 17.7 °C 1030.4 hPa South 9.7 km/h 13.4 km/h 75% 0.0 mm 395 W/m2
15:43 22.4 °C 17.6 °C 1030.0 hPa SSW 7.2 km/h 13.4 km/h 74% 0.0 mm 520 W/m2
15:48 22.8 °C 17.7 °C 1030.4 hPa South 8.7 km/h 13.4 km/h 73% 0.0 mm 510 W/m2
15:53 22.7 °C 17.4 °C 1030.4 hPa South 8.7 km/h 13.4 km/h 72% 0.0 mm 321 W/m2
15:58 22.3 °C 17.2 °C 1030.4 hPa South 7.2 km/h 13.4 km/h 73% 0.0 mm 292 W/m2
16:03 22.2 °C 17.6 °C 1030.4 hPa South 6.1 km/h 13.4 km/h 75% 0.0 mm 407 W/m2
16:08 22.2 °C 17.4 °C 1030.4 hPa South 7.2 km/h 13.4 km/h 74% 0.0 mm 436 W/m2
16:13 21.9 °C 17.5 °C 1030.0 hPa South 9.7 km/h 17.2 km/h 76% 0.0 mm 463 W/m2
16:18 22.0 °C 17.4 °C 1030.4 hPa South 9.7 km/h 18.3 km/h 75% 0.0 mm 357 W/m2
16:23 22.4 °C 17.3 °C 1030.0 hPa South 9.7 km/h 18.3 km/h 73% 0.0 mm 435 W/m2
16:28 22.6 °C 17.6 °C 1030.0 hPa South 11.1 km/h 15.8 km/h 73% 0.0 mm 285 W/m2
16:33 22.8 °C 17.7 °C 1030.0 hPa South 6.1 km/h 15.8 km/h 73% 0.0 mm 516 W/m2
16:38 23.0 °C 17.7 °C 1030.4 hPa South 7.2 km/h 15.8 km/h 72% 0.0 mm 371 W/m2
16:43 22.8 °C 17.5 °C 1030.0 hPa South 9.7 km/h 15.8 km/h 72% 0.0 mm 462 W/m2
16:48 22.8 °C 17.9 °C 1030.0 hPa South 11.1 km/h 15.8 km/h 74% 0.0 mm 385 W/m2
16:53 22.5 °C 17.7 °C 1030.0 hPa South 9.7 km/h 17.2 km/h 74% 0.0 mm 439 W/m2
16:58 22.6 °C 17.3 °C 1030.0 hPa South 9.7 km/h 17.2 km/h 72% 0.0 mm 429 W/m2
17:03 22.6 °C 17.6 °C 1030.4 hPa South 8.7 km/h 15.8 km/h 73% 0.0 mm 415 W/m2
17:08 22.9 °C 17.8 °C 1030.0 hPa SSE 8.7 km/h 15.8 km/h 73% 0.0 mm 407 W/m2
17:13 22.2 °C 17.2 °C 1030.4 hPa South 11.1 km/h 15.8 km/h 73% 0.0 mm 219 W/m2
17:18 21.3 °C 17.3 °C 1030.4 hPa SSW 5.0 km/h 15.8 km/h 78% 0.0 mm 121 W/m2
17:23 20.9 °C 17.7 °C 1030.4 hPa SSW 8.7 km/h 15.8 km/h 82% 0.0 mm 178 W/m2
17:28 21.3 °C 17.9 °C 1030.0 hPa South 7.2 km/h 15.8 km/h 81% 0.0 mm 283 W/m2
17:33 21.9 °C 17.9 °C 1030.0 hPa South 9.7 km/h 15.8 km/h 78% 0.0 mm 316 W/m2
17:38 22.3 °C 18.1 °C 1030.0 hPa South 11.1 km/h 15.8 km/h 77% 0.0 mm 306 W/m2
17:43 22.6 °C 17.9 °C 1030.4 hPa SSW 7.2 km/h 18.3 km/h 75% 0.0 mm 342 W/m2
17:48 22.6 °C 17.9 °C 1030.4 hPa SSW 6.1 km/h 18.3 km/h 75% 0.0 mm 320 W/m2
17:53 22.7 °C 17.8 °C 1030.4 hPa SSW 7.2 km/h 12.2 km/h 74% 0.0 mm 182 W/m2
17:58 22.1 °C 17.5 °C 1030.4 hPa SSW 5.0 km/h 12.2 km/h 75% 0.0 mm 157 W/m2
18:03 21.7 °C 17.7 °C 1030.4 hPa South 8.7 km/h 11.1 km/h 78% 0.0 mm 151 W/m2
18:08 21.2 °C 17.4 °C 1030.4 hPa South 5.0 km/h 11.1 km/h 79% 0.0 mm 157 W/m2
18:13 21.2 °C 17.6 °C 1030.7 hPa South 6.1 km/h 11.1 km/h 80% 0.0 mm 130 W/m2
18:18 21.1 °C 17.6 °C 1030.4 hPa SSE 3.5 km/h 8.7 km/h 80% 0.0 mm 121 W/m2
18:23 21.1 °C 17.6 °C 1030.7 hPa SE 1.1 km/h 8.7 km/h 80% 0.0 mm 114 W/m2
18:28 21.2 °C 17.4 °C 1030.4 hPa ESE 1.1 km/h 8.7 km/h 79% 0.0 mm 102 W/m2
18:33 21.0 °C 17.1 °C 1030.4 hPa SE 2.6 km/h 9.7 km/h 78% 0.0 mm 93 W/m2
18:38 21.3 °C 17.5 °C 1030.4 hPa SE 2.6 km/h 11.1 km/h 79% 0.0 mm 95 W/m2
18:43 21.3 °C 17.1 °C 1030.7 hPa SE 6.1 km/h 11.1 km/h 77% 0.0 mm 82 W/m2
18:48 20.9 °C 17.3 °C 1030.7 hPa SE 6.1 km/h 8.7 km/h 80% 0.0 mm 67 W/m2
18:53 20.7 °C 17.6 °C 1030.7 hPa SSE 3.5 km/h 8.7 km/h 82% 0.0 mm 61 W/m2
18:58 20.6 °C 17.6 °C 1030.7 hPa SSE 1.1 km/h 8.7 km/h 83% 0.0 mm 52 W/m2
19:03 20.4 °C 17.2 °C 1030.7 hPa SE 2.6 km/h 8.7 km/h 82% 0.0 mm 41 W/m2
19:08 20.2 °C 17.2 °C 1030.7 hPa SSE 5.0 km/h 8.7 km/h 83% 0.0 mm 35 W/m2
19:13 20.0 °C 17.1 °C 1030.7 hPa SSE 5.0 km/h 8.7 km/h 83% 0.0 mm 31 W/m2
19:18 19.8 °C 17.2 °C 1030.7 hPa SSE 3.5 km/h 7.2 km/h 85% 0.0 mm 29 W/m2
19:23 19.6 °C 17.0 °C 1031.0 hPa South 3.5 km/h 7.2 km/h 85% 0.0 mm 25 W/m2
19:28 19.6 °C 17.0 °C 1031.0 hPa South 3.5 km/h 7.2 km/h 85% 0.0 mm 20 W/m2
19:33 19.4 °C 17.0 °C 1031.0 hPa South 1.1 km/h 6.1 km/h 86% 0.0 mm 14 W/m2
19:38 19.4 °C 17.0 °C 1030.7 hPa South 3.5 km/h 6.1 km/h 86% 0.0 mm 11 W/m2
19:43 19.3 °C 16.9 °C 1031.0 hPa South 1.1 km/h 6.1 km/h 86% 0.0 mm 8 W/m2
19:48 19.2 °C 16.8 °C 1031.0 hPa South 3.5 km/h 8.7 km/h 86% 0.0 mm 5 W/m2
19:53 19.1 °C 16.9 °C 1031.0 hPa South 3.5 km/h 8.7 km/h 87% 0.0 mm 2 W/m2
19:58 19.0 °C 16.8 °C 1031.0 hPa Calm   7.2 km/h 87% 0.0 mm 1 W/m2
20:03 18.9 °C 16.9 °C 1031.0 hPa South 3.5 km/h 6.1 km/h 88% 0.0 mm 0 W/m2
20:08 18.9 °C 17.1 °C 1031.4 hPa South 5.0 km/h 7.2 km/h 89% 0.0 mm 0 W/m2
20:13 18.9 °C 17.1 °C 1031.4 hPa South 2.6 km/h 7.2 km/h 89% 0.0 mm 0 W/m2
20:18 18.8 °C 16.9 °C 1031.4 hPa SSE 2.6 km/h 6.1 km/h 89% 0.0 mm 0 W/m2
20:23 18.7 °C 17.1 °C 1031.4 hPa Calm   6.1 km/h 90% 0.0 mm 0 W/m2
20:28 18.6 °C 16.9 °C 1031.7 hPa Calm   5.0 km/h 90% 0.0 mm 0 W/m2
20:33 18.5 °C 16.8 °C 1031.7 hPa Calm     90% 0.0 mm 0 W/m2
20:38 18.3 °C 16.7 °C 1031.7 hPa Calm     90% 0.0 mm 0 W/m2
20:43 18.3 °C 16.8 °C 1031.7 hPa Calm     91% 0.0 mm 0 W/m2
20:48 18.2 °C 16.7 °C 1031.7 hPa Calm     91% 0.0 mm 0 W/m2
20:53 18.2 °C 16.9 °C 1032.1 hPa Calm     92% 0.0 mm 0 W/m2
20:58 18.2 °C 16.9 °C 1032.1 hPa Calm     92% 0.0 mm 0 W/m2
21:03 18.2 °C 16.9 °C 1032.1 hPa Calm     92% 0.0 mm 0 W/m2
21:08 18.1 °C 16.9 °C 1032.1 hPa Calm     93% 0.0 mm 0 W/m2
21:13 18.1 °C 16.9 °C 1032.4 hPa Calm     93% 0.0 mm 0 W/m2
21:18 18.1 °C 16.9 °C 1032.1 hPa Calm     93% 0.0 mm 0 W/m2
21:23 18.0 °C 16.9 °C 1032.4 hPa Calm     93% 0.0 mm 0 W/m2
21:28 17.9 °C 16.6 °C 1032.1 hPa Calm     92% 0.0 mm 0 W/m2
21:33 17.8 °C 16.5 °C 1032.4 hPa Calm     92% 0.0 mm 0 W/m2
21:38 17.7 °C 16.4 °C 1032.4 hPa Calm     92% 0.0 mm 0 W/m2
21:43 17.6 °C 16.3 °C 1032.4 hPa Calm     92% 0.0 mm 0 W/m2
21:48 17.5 °C 16.2 °C 1032.4 hPa Calm     92% 0.0 mm 0 W/m2
21:53 17.4 °C 16.1 °C 1032.4 hPa Calm     92% 0.0 mm 0 W/m2
21:58 17.3 °C 16.2 °C 1032.7 hPa Calm     93% 0.0 mm 0 W/m2
22:03 17.2 °C 16.1 °C 1032.7 hPa Calm     93% 0.0 mm 0 W/m2
22:08 17.2 °C 16.1 °C 1032.7 hPa Calm     93% 0.0 mm 0 W/m2
22:13 17.1 °C 15.9 °C 1032.4 hPa Calm     93% 0.0 mm 0 W/m2
22:18 17.0 °C 15.9 °C 1032.7 hPa Calm     93% 0.0 mm 0 W/m2
22:23 17.0 °C 16.1 °C 1032.7 hPa Calm     94% 0.0 mm 0 W/m2
22:41 17.0 °C 16.2 °C 1032.7 hPa Calm     95% 0.0 mm 0 W/m2
22:46 17.0 °C 16.2 °C 1032.7 hPa Calm     95% 0.0 mm 0 W/m2
22:51 17.0 °C 16.4 °C 1032.7 hPa North 2.6 km/h 3.5 km/h 96% 0.0 mm 0 W/m2
22:56 17.0 °C 16.4 °C 1032.7 hPa Calm   3.5 km/h 96% 0.0 mm 0 W/m2
23:01 17.0 °C 16.4 °C 1032.4 hPa Calm   3.5 km/h 96% 0.0 mm 0 W/m2
23:06 17.0 °C 16.4 °C 1032.7 hPa Calm     96% 0.0 mm 0 W/m2
23:11 17.0 °C 16.4 °C 1032.4 hPa Calm   2.6 km/h 96% 0.0 mm 0 W/m2
23:31 17.1 °C 16.4 °C 1032.7 hPa Calm   1.1 km/h 96% 0.0 mm 0 W/m2
23:36 17.1 °C 16.4 °C 1032.7 hPa Calm   2.6 km/h 96% 0.0 mm 0 W/m2
23:41 17.1 °C 16.6 °C 1032.4 hPa NNW 3.5 km/h 6.1 km/h 97% 0.0 mm 0 W/m2
23:46 17.2 °C 16.7 °C 1032.7 hPa NNW 6.1 km/h 8.7 km/h 97% 0.0 mm 0 W/m2
23:51 17.1 °C 16.6 °C 1032.7 hPa NW 3.5 km/h 8.7 km/h 97% 0.0 mm 0 W/m2
23:56 17.0 °C 16.6 °C 1032.7 hPa NW 1.1 km/h 7.2 km/h 97% 0.0 mm 0 W/m2
Northern Hawkes Bay. New Zealand Historic Data
Compliments of Weather Underground - 2 mb